Time;durP1;ratioP1;P1;durP2;ratioP2;P2;SDS_P1;SDS_P2;PMS_P1;PMS_P2;Temp;Humidity;BMP_temperature;BMP_pressure;BME280_temperature;BME280_humidity;BME280_pressure;Samples;Min_cycle;Max_cycle;Signal;HPM_P1;HPM_P2
2021/05/11 00:02:13;;;;;;;12.02;5.55;;;13.90;99.90;;;;;;4983399;28;20042;-67
2021/05/11 00:04:40;;;;;;;11.15;5.90;;;13.90;99.90;;;;;;4982604;28;20046;-67
2021/05/11 00:07:06;;;;;;;10.65;5.28;;;13.90;99.90;;;;;;4981796;28;20067;-67
2021/05/11 00:09:32;;;;;;;14.25;5.57;;;13.80;99.90;;;;;;4984463;28;20122;-67
2021/05/11 00:11:57;;;;;;;12.23;4.60;;;13.70;99.90;;;;;;4983162;28;20039;-67
2021/05/11 00:14:23;;;;;;;16.30;5.57;;;13.70;99.90;;;;;;4983424;28;20046;-67
2021/05/11 00:16:50;;;;;;;14.05;4.10;;;13.80;99.90;;;;;;4984155;28;20146;-67
2021/05/11 00:19:17;;;;;;;12.65;4.80;;;13.70;99.90;;;;;;4983918;28;20046;-67
2021/05/11 00:21:43;;;;;;;13.63;4.53;;;13.70;99.90;;;;;;4982648;28;20087;-67
2021/05/11 00:24:09;;;;;;;13.65;4.55;;;13.70;99.90;;;;;;4981665;28;20043;-67
2021/05/11 00:26:37;;;;;;;15.00;5.18;;;13.70;99.90;;;;;;4983330;28;21342;-67
2021/05/11 00:29:04;;;;;;;15.73;5.28;;;13.70;99.90;;;;;;4984260;28;20114;-67
2021/05/11 00:31:30;;;;;;;10.98;5.38;;;13.60;99.90;;;;;;4982311;28;20064;-67
2021/05/11 00:33:56;;;;;;;15.77;4.80;;;13.60;99.90;;;;;;4982585;28;20058;-67
2021/05/11 00:36:22;;;;;;;13.43;4.28;;;13.50;99.90;;;;;;4982295;28;20425;-67
2021/05/11 00:38:48;;;;;;;16.83;4.70;;;13.50;99.90;;;;;;4981675;28;20042;-67
2021/05/11 00:41:14;;;;;;;11.73;4.60;;;13.50;99.90;;;;;;4981269;28;20054;-67
2021/05/11 00:43:46;;;;;;;11.73;4.00;;;13.50;99.90;;;;;;4983420;28;20070;-67
2021/05/11 00:46:13;;;;;;;12.43;4.95;;;13.50;99.90;;;;;;4983221;28;20047;-67
2021/05/11 00:48:40;;;;;;;12.73;4.97;;;13.40;99.90;;;;;;4981691;28;20046;-67
2021/05/11 00:51:06;;;;;;;22.70;6.28;;;13.40;99.90;;;;;;4981699;28;20630;-67
2021/05/11 00:53:34;;;;;;;13.68;5.22;;;13.30;99.90;;;;;;4981609;28;20076;-67
2021/05/11 00:56:00;;;;;;;13.23;5.57;;;13.30;99.90;;;;;;4982374;28;20039;-67
2021/05/11 00:58:26;;;;;;;13.60;4.72;;;13.30;99.90;;;;;;4981405;28;20035;-67
2021/05/11 01:00:52;;;;;;;11.73;4.72;;;13.20;99.90;;;;;;4980938;28;20038;-67
2021/05/11 01:03:18;;;;;;;12.65;5.40;;;13.20;99.90;;;;;;4982070;28;20109;-67
2021/05/11 01:05:44;;;;;;;8.85;4.28;;;13.30;99.90;;;;;;4980916;28;20043;-67
2021/05/11 01:08:13;;;;;;;14.23;5.18;;;13.30;99.90;;;;;;4981668;28;20083;-67
2021/05/11 01:10:39;;;;;;;14.57;5.32;;;13.30;99.90;;;;;;4982879;28;20038;-67
2021/05/11 01:13:04;;;;;;;12.77;4.40;;;13.30;99.90;;;;;;4965594;28;20049;-67
2021/05/11 01:15:31;;;;;;;13.52;4.70;;;13.30;99.90;;;;;;4982317;28;20034;-67
2021/05/11 01:18:09;;;;;;;14.75;5.32;;;13.30;99.90;;;;;;4981724;28;20043;-67
2021/05/11 01:20:39;;;;;;;13.90;5.25;;;13.20;99.90;;;;;;4982632;28;20499;-67
2021/05/11 01:23:24;;;;;;;14.40;5.40;;;13.20;99.90;;;;;;4980934;28;20053;-67
2021/05/11 01:25:54;;;;;;;13.20;5.18;;;13.10;99.90;;;;;;4980578;28;20046;-67
2021/05/11 01:31:21;;;;;;;17.55;6.53;;;13.00;99.90;;;;;;4982797;28;20501;-67
2021/05/11 01:45:21;;;;;;;13.70;5.93;;;12.90;99.90;;;;;;4983362;28;20580;-67
2021/05/11 01:47:53;;;;;;;24.75;8.45;;;13.00;99.90;;;;;;4980923;28;20042;-67
2021/05/11 01:50:28;;;;;;;14.82;6.97;;;13.00;99.90;;;;;;4981924;28;20042;-67
2021/05/11 01:55:56;;;;;;;18.70;6.85;;;13.00;99.90;;;;;;4980772;28;20034;-67
2021/05/11 01:59:07;;;;;;;16.75;8.25;;;13.00;99.90;;;;;;4980639;28;20065;-67
2021/05/11 02:23:13;;;;;;;21.13;9.65;;;12.80;99.90;;;;;;4981341;28;20046;-66
2021/05/11 02:25:39;;;;;;;15.68;9.73;;;12.80;99.90;;;;;;4980640;28;21287;-66
2021/05/11 02:28:04;;;;;;;19.30;9.63;;;12.80;99.90;;;;;;4980562;28;20753;-66
2021/05/11 02:30:30;;;;;;;14.82;9.85;;;12.80;99.90;;;;;;4968453;28;20042;-67
2021/05/11 02:32:56;;;;;;;12.07;9.77;;;12.80;99.90;;;;;;4986498;28;20046;-67
2021/05/11 02:35:22;;;;;;;19.85;9.55;;;12.80;99.90;;;;;;4986237;28;20436;-67
2021/05/11 02:37:48;;;;;;;15.90;9.65;;;12.90;99.90;;;;;;4986733;28;20547;-67
2021/05/11 02:40:20;;;;;;;12.32;8.70;;;12.90;99.90;;;;;;4986512;28;20053;-67
2021/05/11 02:42:48;;;;;;;13.60;8.32;;;12.90;99.90;;;;;;4986856;28;20038;-66
2021/05/11 02:45:15;;;;;;;14.93;9.68;;;13.00;99.90;;;;;;4986935;28;20035;-66
2021/05/11 02:47:50;;;;;;;15.43;9.68;;;12.90;99.90;;;;;;4987466;28;20037;-66
2021/05/11 02:50:26;;;;;;;10.15;8.98;;;13.00;99.90;;;;;;4987067;28;20057;-66
2021/05/11 02:52:51;;;;;;;;;;;13.00;99.90;;;;;;4986690;28;20493;-67
2021/05/11 02:55:19;;;;;;;11.05;7.13;;;12.90;99.90;;;;;;4984081;28;19976;-66
2021/05/11 02:57:45;;;;;;;13.35;7.60;;;12.90;99.90;;;;;;4985719;28;20039;-66
2021/05/11 03:00:13;;;;;;;11.65;5.55;;;13.00;99.90;;;;;;4985695;28;20385;-67
2021/05/11 03:02:39;;;;;;;4.55;3.67;;;13.10;99.90;;;;;;4987195;28;20628;-66
2021/05/11 03:05:05;;;;;;;4.93;3.42;;;13.10;99.90;;;;;;4984999;28;20101;-67
2021/05/11 03:07:31;;;;;;;4.85;2.80;;;13.10;99.90;;;;;;4986672;28;20038;-67
2021/05/11 03:09:58;;;;;;;5.30;3.15;;;13.10;99.90;;;;;;4985702;28;20129;-66
2021/05/11 03:12:23;;;;;;;5.97;2.90;;;13.10;99.90;;;;;;4984923;28;20560;-66
2021/05/11 03:14:50;;;;;;;6.05;3.08;;;13.20;99.90;;;;;;4987536;28;20077;-67
2021/05/11 03:17:16;;;;;;;7.32;3.35;;;13.10;99.90;;;;;;4981901;28;20397;-67
2021/05/11 03:19:41;;;;;;;4.22;2.95;;;13.10;99.90;;;;;;4977772;28;20042;-66
2021/05/11 03:22:08;;;;;;;4.95;2.53;;;13.20;99.90;;;;;;4980085;28;20034;-66
2021/05/11 03:24:38;;;;;;;6.82;3.50;;;13.20;99.90;;;;;;4981488;28;20034;-66
2021/05/11 03:27:04;;;;;;;4.43;3.03;;;13.20;99.90;;;;;;4979754;28;20050;-66
2021/05/11 03:29:30;;;;;;;7.43;2.80;;;13.10;99.90;;;;;;4982591;28;20053;-66
2021/05/11 03:31:56;;;;;;;4.13;3.38;;;13.00;99.90;;;;;;4983936;28;20481;-66
2021/05/11 03:34:21;;;;;;;5.78;2.72;;;13.00;99.90;;;;;;4983670;28;20042;-66
2021/05/11 03:36:47;;;;;;;7.07;3.22;;;13.00;99.90;;;;;;4985059;28;20858;-67
2021/05/11 03:39:13;;;;;;;6.53;3.63;;;13.00;99.90;;;;;;4984677;28;20045;-66
2021/05/11 03:41:44;;;;;;;6.50;3.78;;;13.00;99.90;;;;;;4983870;28;20042;-66
2021/05/11 03:44:13;;;;;;;3.65;2.97;;;13.00;99.90;;;;;;4980841;28;20448;-66
2021/05/11 03:46:39;;;;;;;6.88;3.40;;;13.00;99.90;;;;;;4983103;28;20070;-66
2021/05/11 03:49:06;;;;;;;3.97;2.42;;;13.00;99.90;;;;;;4983191;28;20165;-67
2021/05/11 03:51:33;;;;;;;3.80;2.75;;;13.00;99.90;;;;;;4983904;28;20113;-67
2021/05/11 03:53:59;;;;;;;4.88;2.55;;;13.00;99.90;;;;;;4982527;28;20042;-66
2021/05/11 03:56:26;;;;;;;4.75;3.08;;;13.00;99.90;;;;;;4983172;28;20062;-66
2021/05/11 03:58:52;;;;;;;2.92;2.10;;;13.00;99.90;;;;;;4982700;28;20038;-66
2021/05/11 04:01:18;;;;;;;4.95;2.10;;;13.00;99.90;;;;;;4968702;28;20084;-66
2021/05/11 04:03:44;;;;;;;3.17;1.95;;;13.00;99.90;;;;;;4982496;28;20125;-66
2021/05/11 04:06:10;;;;;;;3.80;2.13;;;13.00;99.90;;;;;;4983285;28;20069;-66
2021/05/11 04:13:56;;;;;;;2.38;1.70;;;13.00;99.90;;;;;;4981799;28;20038;-66
2021/05/11 04:16:23;;;;;;;4.43;2.13;;;13.00;99.90;;;;;;4982382;28;20046;-66
2021/05/11 04:18:52;;;;;;;2.42;2.00;;;13.00;99.90;;;;;;4984950;28;20066;-66
2021/05/11 04:21:18;;;;;;;3.50;1.77;;;13.00;99.90;;;;;;4993505;28;20042;-66
2021/05/11 04:23:45;;;;;;;2.55;1.50;;;13.00;99.90;;;;;;4987897;28;20100;-66
2021/05/11 04:26:12;;;;;;;4.38;2.03;;;12.90;99.90;;;;;;4983550;28;20112;-66
2021/05/11 04:28:39;;;;;;;3.40;2.90;;;13.00;99.90;;;;;;4982278;28;20080;-66
2021/05/11 04:31:05;;;;;;;6.80;3.10;;;12.90;99.90;;;;;;4983471;28;20045;-66
2021/05/11 04:33:31;;;;;;;4.30;2.63;;;12.90;99.90;;;;;;4982837;28;20050;-66
2021/05/11 04:35:57;;;;;;;4.88;2.00;;;12.90;99.90;;;;;;4984438;28;20058;-66
2021/05/11 04:38:23;;;;;;;2.42;1.27;;;12.90;99.90;;;;;;4983560;28;20035;-66
2021/05/11 04:40:50;;;;;;;2.45;1.25;;;12.90;99.90;;;;;;4982890;28;20049;-66
2021/05/11 04:43:20;;;;;;;2.22;1.73;;;12.90;99.90;;;;;;4985457;28;20046;-66
2021/05/11 04:45:47;;;;;;;2.85;1.60;;;12.80;99.90;;;;;;4987505;28;20034;-66
2021/05/11 04:48:13;;;;;;;5.93;1.98;;;12.80;99.90;;;;;;4988126;28;20042;-66
2021/05/11 04:50:39;;;;;;;2.80;1.75;;;12.90;99.90;;;;;;4988446;28;20034;-66
2021/05/11 04:53:04;;;;;;;4.72;2.53;;;12.90;99.90;;;;;;4986991;28;20038;-66
2021/05/11 04:55:32;;;;;;;4.85;2.28;;;13.00;99.90;;;;;;4989225;28;20133;-66
2021/05/11 04:57:57;;;;;;;3.33;1.98;;;13.00;99.90;;;;;;4989402;28;20038;-66
2021/05/11 05:00:23;;;;;;;2.83;1.95;;;12.90;99.90;;;;;;4989287;28;20389;-66
2021/05/11 05:02:52;;;;;;;4.20;2.53;;;12.90;99.90;;;;;;4986716;28;20048;-66
2021/05/11 05:05:17;;;;;;;6.05;2.70;;;13.00;99.90;;;;;;4987754;28;20495;-66
2021/05/11 05:07:43;;;;;;;3.35;2.20;;;13.00;99.90;;;;;;4987899;28;20038;-66
2021/05/11 05:10:11;;;;;;;3.53;2.17;;;13.00;99.90;;;;;;4986890;28;20521;-66
2021/05/11 05:12:38;;;;;;;4.07;2.10;;;13.00;99.90;;;;;;4987890;28;20745;-66
2021/05/11 05:15:05;;;;;;;4.88;2.05;;;13.00;99.90;;;;;;4987951;28;20088;-66
2021/05/11 05:17:31;;;;;;;5.05;2.20;;;13.00;99.90;;;;;;4988500;28;20094;-66
2021/05/11 05:19:57;;;;;;;3.30;2.05;;;13.10;99.90;;;;;;4988694;28;20456;-66
2021/05/11 05:22:23;;;;;;;1.73;1.63;;;13.10;99.90;;;;;;4988870;28;20061;-66
2021/05/11 05:24:56;;;;;;;4.68;2.05;;;13.10;99.90;;;;;;4988926;28;20043;-66
2021/05/11 05:29:48;;;;;;;3.88;2.80;;;13.20;99.90;;;;;;4988446;28;20038;-66
2021/05/11 05:32:14;;;;;;;2.90;1.98;;;13.30;99.90;;;;;;4989281;28;20048;-66
2021/05/11 05:34:41;;;;;;;4.13;2.58;;;13.30;99.90;;;;;;4986808;28;20042;-66
2021/05/11 05:37:09;;;;;;;4.93;3.70;;;13.30;99.90;;;;;;4968830;28;20038;-66
2021/05/11 05:39:44;;;;;;;4.05;2.85;;;13.30;99.90;;;;;;4988601;28;20042;-66
2021/05/11 05:42:10;;;;;;;7.13;3.00;;;13.30;99.90;;;;;;4989128;28;20042;-67
2021/05/11 05:44:36;;;;;;;3.70;2.92;;;13.30;99.90;;;;;;4987561;28;20300;-66
2021/05/11 05:47:02;;;;;;;5.55;2.70;;;13.30;99.90;;;;;;4989813;28;20113;-66
2021/05/11 05:49:33;;;;;;;6.10;2.60;;;13.40;99.90;;;;;;4988417;28;20485;-66
2021/05/11 05:52:03;;;;;;;4.72;2.67;;;13.40;99.90;;;;;;4981539;28;20034;-66
2021/05/11 05:54:31;;;;;;;3.40;2.17;;;13.40;99.90;;;;;;4982358;28;20053;-66
2021/05/11 05:56:57;;;;;;;4.10;2.50;;;13.50;99.90;;;;;;4983512;28;20488;-66
2021/05/11 05:59:23;;;;;;;4.57;2.33;;;13.50;99.90;;;;;;4983626;28;20216;-66
2021/05/11 06:01:49;;;;;;;3.72;2.00;;;13.50;99.90;;;;;;4984314;28;20069;-66
2021/05/11 06:04:20;;;;;;;3.45;2.13;;;13.50;99.90;;;;;;4982109;28;20038;-66
2021/05/11 06:07:06;;;;;;;3.28;2.15;;;13.50;99.90;;;;;;4985836;28;20133;-66
2021/05/11 06:09:32;;;;;;;4.00;2.70;;;13.50;99.90;;;;;;4981757;28;20527;-67
2021/05/11 06:12:02;;;;;;;5.93;2.72;;;13.50;99.90;;;;;;4985640;28;20038;-67
2021/05/11 06:17:15;;;;;;;2.55;2.20;;;13.50;99.90;;;;;;4982344;28;20043;-67
2021/05/11 06:19:51;;;;;;;2.53;2.03;;;13.50;99.90;;;;;;4983613;28;20084;-66
2021/05/11 06:22:16;;;;;;;3.75;1.90;;;13.50;99.90;;;;;;4982669;28;20061;-66
2021/05/11 06:24:43;;;;;;;3.50;1.95;;;13.60;99.90;;;;;;4984452;28;20053;-66
2021/05/11 06:27:11;;;;;;;3.58;1.83;;;13.60;99.90;;;;;;4979864;28;20057;-66
2021/05/11 06:29:39;;;;;;;2.15;1.50;;;13.60;99.90;;;;;;4981353;28;20046;-66
2021/05/11 06:32:06;;;;;;;1.50;1.20;;;13.70;99.90;;;;;;4980547;28;20034;-66
2021/05/11 06:34:33;;;;;;;4.32;1.50;;;13.70;99.90;;;;;;4983280;28;20038;-66
2021/05/11 06:37:05;;;;;;;2.38;1.45;;;13.70;99.90;;;;;;4983450;28;20061;-66
2021/05/11 06:39:33;;;;;;;1.98;1.40;;;13.70;99.90;;;;;;4982253;28;20485;-66
2021/05/11 06:42:06;;;;;;;1.45;1.33;;;13.70;99.90;;;;;;4981807;28;20073;-67
2021/05/11 06:55:13;;;;;;;1.92;1.67;;;13.60;99.90;;;;;;4983315;28;20093;-66
2021/05/11 06:57:39;;;;;;;2.78;2.20;;;13.60;99.90;;;;;;4982364;28;20463;-66
2021/05/11 07:00:05;;;;;;;1.92;1.80;;;13.60;99.90;;;;;;4981685;28;20176;-66
2021/05/11 07:02:31;;;;;;;3.15;2.13;;;13.70;99.90;;;;;;4982985;28;20161;-66
2021/05/11 07:04:57;;;;;;;2.85;2.08;;;13.60;99.90;;;;;;4982586;28;20070;-66
2021/05/11 07:07:23;;;;;;;2.22;1.80;;;13.60;99.90;;;;;;4984961;28;20204;-66
2021/05/11 07:15:15;;;;;;;3.65;3.25;;;13.70;99.90;;;;;;4985236;28;20105;-66
2021/05/11 07:17:41;;;;;;;3.17;2.75;;;13.70;99.90;;;;;;4983338;28;20042;-67
2021/05/11 07:20:07;;;;;;;4.28;3.05;;;13.70;99.90;;;;;;4985362;28;20448;-67
2021/05/11 07:22:32;;;;;;;2.63;2.42;;;13.80;99.90;;;;;;4986959;28;20094;-66
2021/05/11 07:24:59;;;;;;;2.85;2.65;;;13.80;99.90;;;;;;4970285;28;20034;-67
2021/05/11 07:29:55;;;;;;;3.65;2.60;;;13.80;99.90;;;;;;4984604;28;20052;-66
2021/05/11 07:32:22;;;;;;;3.45;2.08;;;13.80;99.90;;;;;;4985164;28;20042;-66
2021/05/11 07:34:51;;;;;;;1.65;1.35;;;13.80;99.90;;;;;;4984082;28;20038;-66
2021/05/11 07:37:17;;;;;;;2.33;1.50;;;13.90;99.90;;;;;;4983793;28;20046;-66
2021/05/11 07:39:45;;;;;;;2.28;1.20;;;14.00;99.90;;;;;;4984398;28;20042;-66
2021/05/11 07:42:12;;;;;;;1.40;1.00;;;14.00;99.90;;;;;;4983211;28;20046;-66
2021/05/11 07:44:44;;;;;;;3.13;1.10;;;14.00;99.90;;;;;;4986179;28;20489;-67
2021/05/11 07:50:05;;;;;;;1.85;1.23;;;14.00;99.90;;;;;;4984672;28;20046;-66
2021/05/11 08:03:59;;;;;;;2.08;1.40;;;14.30;99.90;;;;;;4984802;28;20389;-67
2021/05/11 08:14:39;;;;;;;2.88;1.90;;;14.40;99.90;;;;;;4985043;28;20058;-66
2021/05/11 08:17:06;;;;;;;2.97;2.38;;;14.50;99.90;;;;;;4983016;28;20038;-67
2021/05/11 08:19:45;;;;;;;3.00;2.65;;;14.50;99.90;;;;;;4983789;28;20129;-67
2021/05/11 08:22:37;;;;;;;2.42;2.22;;;14.50;99.90;;;;;;4983607;28;20046;-67
2021/05/11 08:27:58;;;;;;;3.43;2.60;;;14.60;99.90;;;;;;4984740;28;20492;-67
2021/05/11 08:30:25;;;;;;;2.95;2.65;;;14.60;99.90;;;;;;4983163;28;20042;-66
2021/05/11 08:32:52;;;;;;;2.90;2.70;;;14.60;99.90;;;;;;4982591;28;20050;-67
2021/05/11 08:35:18;;;;;;;5.28;2.85;;;14.60;99.90;;;;;;4983020;28;20046;-67
2021/05/11 08:37:44;;;;;;;2.92;2.70;;;14.70;99.90;;;;;;4983952;28;20112;-67
2021/05/11 08:40:10;;;;;;;2.63;2.42;;;14.60;99.90;;;;;;4984316;28;20034;-67
2021/05/11 08:42:37;;;;;;;3.45;2.58;;;14.80;99.90;;;;;;4985675;28;20042;-67
2021/05/11 08:45:09;;;;;;;2.78;2.42;;;14.80;99.90;;;;;;4983478;28;20121;-67
2021/05/11 08:47:52;;;;;;;3.75;2.58;;;14.90;99.90;;;;;;4983230;28;20050;-67
2021/05/11 08:50:28;;;;;;;4.85;2.70;;;15.00;99.90;;;;;;4984410;28;20052;-66
2021/05/11 08:53:13;;;;;;;3.80;2.30;;;15.10;99.90;;;;;;4983898;28;20125;-67
2021/05/11 09:24:17;;;;;;;10.88;7.28;;;16.40;99.50;;;;;;4981371;28;20133;-67
2021/05/11 09:45:05;;;;;;;2.13;0.82;;;17.50;98.30;;;;;;4981434;28;20536;-67
2021/05/11 10:11:21;;;;;;;0.75;0.40;;;18.60;92.20;;;;;;4980578;28;20042;-67
2021/05/11 10:36:45;;;;;;;1.88;0.57;;;17.60;93.10;;;;;;4981859;28;20034;-67
2021/05/11 10:42:02;;;;;;;2.40;0.32;;;17.60;93.60;;;;;;4986903;28;20050;-67
2021/05/11 10:46:27;;;;;;;0.93;0.40;;;17.70;93.80;;;;;;4989022;28;20089;-67
2021/05/11 10:48:24;;;;;;;2.83;0.55;;;17.50;92.50;;;;;;4986412;28;20050;-67
2021/05/11 10:50:55;;;;;;;1.67;0.57;;;17.20;92.80;;;;;;4945635;28;20226;-67
2021/05/11 10:53:46;;;;;;;1.98;0.40;;;17.10;92.80;;;;;;4948978;28;20043;-67
2021/05/11 11:01:45;;;;;;;2.67;0.63;;;17.20;94.10;;;;;;4991550;28;20097;-67
2021/05/11 11:04:19;;;;;;;1.23;0.60;;;17.30;94.70;;;;;;4984452;28;20445;-67
2021/05/11 11:07:06;;;;;;;2.13;0.40;;;17.40;95.00;;;;;;4986619;28;20039;-67
2021/05/11 11:09:34;;;;;;;1.17;0.40;;;17.50;94.00;;;;;;4986039;28;21538;-67
2021/05/11 11:12:02;;;;;;;2.17;0.60;;;17.60;94.50;;;;;;4985885;28;20038;-67
2021/05/11 11:14:55;;;;;;;4.18;0.40;;;17.70;94.20;;;;;;4967388;28;20049;-67
2021/05/11 11:17:21;;;;;;;1.42;0.82;;;17.80;93.90;;;;;;4982382;28;20065;-67
2021/05/11 11:19:55;;;;;;;0.75;0.30;;;17.90;94.00;;;;;;4983189;28;20070;-67
2021/05/11 11:25:06;;;;;;;2.08;0.30;;;18.00;94.20;;;;;;4984156;28;20092;-67
2021/05/11 11:27:33;;;;;;;0.52;0.20;;;18.00;94.30;;;;;;4982190;28;20049;-67
2021/05/11 11:30:05;;;;;;;0.75;0.20;;;18.00;93.90;;;;;;4982880;28;20119;-67
2021/05/11 11:32:30;;;;;;;1.70;0.70;;;17.80;93.20;;;;;;4984889;28;20144;-67
2021/05/11 11:35:00;;;;;;;0.80;0.30;;;17.70;93.30;;;;;;4984314;28;20043;-67
2021/05/11 11:37:28;;;;;;;1.42;0.35;;;17.50;93.60;;;;;;4983403;28;20113;-67
2021/05/11 11:39:56;;;;;;;0.80;0.38;;;17.50;94.50;;;;;;4983936;28;20100;-67
2021/05/11 11:42:23;;;;;;;1.00;0.40;;;17.40;94.50;;;;;;4982862;28;20541;-66
2021/05/11 11:44:53;;;;;;;0.80;0.30;;;17.40;94.30;;;;;;4967474;28;20038;-67
2021/05/11 11:47:18;;;;;;;0.85;0.52;;;17.40;95.70;;;;;;4983556;28;20037;-67
2021/05/11 11:49:48;;;;;;;1.33;0.30;;;17.30;95.10;;;;;;4982425;28;20551;-67
2021/05/11 12:00:08;;;;;;;1.58;0.55;;;17.10;95.70;;;;;;4984081;28;20053;-67
2021/05/11 12:02:36;;;;;;;2.95;0.40;;;17.10;96.00;;;;;;4984618;28;20046;-67
2021/05/11 12:05:12;;;;;;;0.95;0.50;;;17.00;96.20;;;;;;4983444;28;20162;-67
2021/05/11 12:07:55;;;;;;;0.88;0.50;;;17.00;96.30;;;;;;4984084;28;20057;-67
2021/05/11 12:10:21;;;;;;;0.68;0.55;;;16.90;96.30;;;;;;4982197;28;20042;-67
2021/05/11 12:12:47;;;;;;;0.77;0.65;;;16.70;95.90;;;;;;4983860;28;20046;-67
2021/05/11 12:15:19;;;;;;;2.40;0.80;;;16.60;96.30;;;;;;4982624;28;20093;-67
2021/05/11 12:18:09;;;;;;;1.60;0.85;;;16.60;96.50;;;;;;4985214;28;20125;-67
2021/05/11 12:20:36;;;;;;;2.95;1.40;;;16.60;97.20;;;;;;4985525;28;20046;-67
2021/05/11 12:23:12;;;;;;;1.63;1.30;;;16.50;96.40;;;;;;4983212;28;20046;-67
2021/05/11 12:25:38;;;;;;;2.22;1.35;;;16.50;97.10;;;;;;4985122;28;20132;-67
2021/05/11 12:28:04;;;;;;;1.52;1.20;;;16.50;97.30;;;;;;4983845;28;20031;-67
2021/05/11 12:30:40;;;;;;;2.15;1.10;;;16.50;97.40;;;;;;4982653;28;20780;-67
2021/05/11 12:33:11;;;;;;;2.72;1.00;;;16.60;97.50;;;;;;4982935;28;20561;-66
2021/05/11 12:35:39;;;;;;;1.50;0.88;;;16.50;97.00;;;;;;4980915;28;20141;-67
2021/05/11 12:38:21;;;;;;;1.20;1.00;;;16.50;96.90;;;;;;4983127;28;20480;-66
2021/05/11 12:41:10;;;;;;;1.35;0.60;;;16.40;97.30;;;;;;4982808;28;20046;-66
2021/05/11 12:43:42;;;;;;;1.00;0.90;;;16.50;97.20;;;;;;4983680;28;20061;-66
2021/05/11 12:46:28;;;;;;;1.92;1.10;;;16.40;97.60;;;;;;4983963;28;20088;-67
2021/05/11 12:49:18;;;;;;;1.70;0.90;;;16.50;97.50;;;;;;4984970;28;20034;-67
2021/05/11 12:51:54;;;;;;;1.27;0.80;;;16.50;96.80;;;;;;4985070;28;20309;-67
2021/05/11 12:54:23;;;;;;;1.85;1.00;;;16.40;96.60;;;;;;4985843;28;20046;-66
2021/05/11 12:57:14;;;;;;;2.72;1.00;;;16.40;96.70;;;;;;4987599;28;20096;-66
2021/05/11 13:03:06;;;;;;;2.22;1.10;;;16.30;97.50;;;;;;4987756;28;20050;-67
2021/05/11 13:17:09;;;;;;;1.50;1.30;;;16.30;97.70;;;;;;4982009;28;21682;-67
2021/05/11 13:30:34;;;;;;;1.20;1.10;;;16.40;97.80;;;;;;5078052;28;20401;-66
2021/05/11 13:33:14;;;;;;;2.75;1.00;;;16.60;98.20;;;;;;5078247;28;20494;-66
2021/05/11 13:35:39;;;;;;;2.75;0.95;;;16.60;98.20;;;;;;5078457;28;20032;-66
2021/05/11 13:38:06;;;;;;;2.05;0.80;;;16.50;98.10;;;;;;5082478;28;20522;-66
2021/05/11 13:40:33;;;;;;;0.90;0.80;;;16.40;98.40;;;;;;5084335;28;20036;-66
2021/05/11 13:42:58;;;;;;;1.67;0.98;;;16.30;98.50;;;;;;5081568;28;20036;-66
2021/05/11 13:45:24;;;;;;;1.75;0.90;;;16.30;98.80;;;;;;5081640;28;20104;-66
2021/05/11 13:48:06;;;;;;;0.40;0.30;;;16.30;98.70;;;;;;5083063;28;20043;-66
2021/05/11 13:53:17;;;;;;;0.88;0.70;;;16.10;98.30;;;;;;5079750;28;20127;-66
2021/05/11 14:03:58;;;;;;;1.33;1.10;;;15.90;99.40;;;;;;5071359;28;20093;-66
2021/05/11 14:06:23;;;;;;;1.17;0.80;;;15.80;99.40;;;;;;5072211;28;20048;-66
2021/05/11 14:08:49;;;;;;;1.10;0.50;;;15.80;99.40;;;;;;5069306;28;20037;-66
2021/05/11 14:11:15;;;;;;;1.08;0.55;;;15.70;99.30;;;;;;5071809;28;20032;-66
2021/05/11 14:13:40;;;;;;;1.35;0.40;;;15.60;99.10;;;;;;5072058;28;20063;-66
2021/05/11 14:16:07;;;;;;;3.63;1.40;;;15.50;98.90;;;;;;5073846;28;20051;-66
2021/05/11 14:18:33;;;;;;;0.60;0.60;;;15.40;99.40;;;;;;5104679;27;20034;-66
2021/05/11 14:20:58;;;;;;;2.20;0.80;;;15.30;99.90;;;;;;5069866;28;20115;-66
2021/05/11 14:23:24;;;;;;;0.95;0.75;;;15.20;99.90;;;;;;5075220;28;20127;-66
2021/05/11 14:25:50;;;;;;;0.85;0.40;;;15.10;99.90;;;;;;5077426;28;20065;-66
2021/05/11 14:28:17;;;;;;;1.45;0.60;;;15.10;99.90;;;;;;5078033;28;20638;-66
2021/05/11 14:30:43;;;;;;;1.33;0.50;;;15.00;99.90;;;;;;5080419;28;20489;-66
2021/05/11 14:33:08;;;;;;;1.50;0.45;;;15.10;99.90;;;;;;5081523;28;20037;-66
2021/05/11 14:35:34;;;;;;;2.08;0.40;;;15.10;99.90;;;;;;5073716;28;20044;-66
2021/05/11 14:38:01;;;;;;;2.75;0.50;;;15.20;99.90;;;;;;5067615;28;20132;-66
2021/05/11 14:40:26;;;;;;;0.47;0.47;;;15.30;99.90;;;;;;5070737;28;20102;-66
2021/05/11 14:42:53;;;;;;;1.23;0.55;;;15.30;99.90;;;;;;5068746;28;20033;-66
2021/05/11 14:45:23;;;;;;;1.20;0.60;;;15.40;99.90;;;;;;5065814;28;20093;-66
2021/05/11 14:47:49;;;;;;;2.28;0.50;;;15.60;99.90;;;;;;5071668;28;20132;-66
2021/05/11 14:50:17;;;;;;;1.00;0.50;;;15.60;99.90;;;;;;5071046;28;20123;-66
2021/05/11 14:52:44;;;;;;;1.33;0.63;;;15.60;99.90;;;;;;5069336;28;20108;-66
2021/05/11 14:55:13;;;;;;;2.55;0.60;;;15.70;99.90;;;;;;5070573;28;20043;-66
2021/05/11 14:57:39;;;;;;;1.67;0.40;;;15.80;99.90;;;;;;5067707;28;20039;-66
2021/05/11 15:00:05;;;;;;;2.35;0.80;;;15.80;99.40;;;;;;5068900;28;20037;-66
2021/05/11 15:02:31;;;;;;;1.98;0.75;;;15.80;99.30;;;;;;5068820;28;20037;-66
2021/05/11 15:04:57;;;;;;;2.00;0.60;;;15.80;99.90;;;;;;5067877;28;20528;-66
2021/05/11 15:07:22;;;;;;;0.50;0.30;;;15.70;99.50;;;;;;5066753;28;20040;-65
2021/05/11 15:09:48;;;;;;;1.27;0.50;;;15.60;99.30;;;;;;5065347;28;20099;-66
2021/05/11 15:12:14;;;;;;;3.13;1.02;;;15.50;99.40;;;;;;5064695;28;20063;-65
2021/05/11 15:14:39;;;;;;;0.85;0.40;;;15.50;99.60;;;;;;5059360;28;20123;-65
2021/05/11 15:17:58;;;;;;;1.65;0.32;;;15.50;99.20;;;;;;5066530;28;20058;-65
2021/05/11 15:19:57;;;;;;;1.50;0.45;;;15.40;99.10;;;;;;5053702;28;20499;-66
2021/05/11 15:22:23;;;;;;;2.13;0.50;;;15.40;99.40;;;;;;5059563;28;20033;-67
2021/05/11 15:24:51;;;;;;;3.08;0.52;;;15.30;99.40;;;;;;5055193;28;20420;-66
2021/05/11 15:27:18;;;;;;;1.85;0.40;;;15.30;99.20;;;;;;5057897;28;20649;-67
2021/05/11 15:29:44;;;;;;;1.67;0.50;;;15.30;99.50;;;;;;5055474;28;20037;-66
2021/05/11 15:32:35;;;;;;;1.50;0.50;;;15.20;99.60;;;;;;5059307;28;20098;-66
2021/05/11 15:35:01;;;;;;;1.00;0.30;;;15.20;99.20;;;;;;5052202;28;20048;-66
2021/05/11 15:37:27;;;;;;;2.38;0.45;;;15.20;99.10;;;;;;5059262;28;20044;-66
2021/05/11 15:39:53;;;;;;;2.60;0.80;;;15.10;99.00;;;;;;5058552;28;20036;-66
2021/05/11 15:42:18;;;;;;;1.00;0.45;;;15.10;99.20;;;;;;5056918;28;20048;-66
2021/05/11 15:44:44;;;;;;;1.88;0.63;;;15.10;99.30;;;;;;5056716;28;20044;-66
2021/05/11 15:47:10;;;;;;;1.70;0.47;;;15.00;99.20;;;;;;5049379;28;20072;-66
2021/05/11 15:49:36;;;;;;;1.58;0.50;;;15.00;99.30;;;;;;5054728;28;20062;-66
2021/05/11 15:52:01;;;;;;;1.58;0.40;;;15.00;99.50;;;;;;5055040;28;20047;-66
2021/05/11 15:54:27;;;;;;;1.42;0.55;;;15.00;99.30;;;;;;5055317;28;20107;-66
2021/05/11 15:56:53;;;;;;;1.35;0.50;;;14.90;99.40;;;;;;5060901;28;20044;-66
2021/05/11 15:59:18;;;;;;;2.72;0.70;;;14.90;99.70;;;;;;5060619;28;20040;-66
2021/05/11 16:01:44;;;;;;;2.72;1.38;;;14.90;99.80;;;;;;5055767;28;20051;-66
2021/05/11 16:04:10;;;;;;;1.85;0.80;;;14.90;99.60;;;;;;5057718;28;20563;-66
2021/05/11 16:06:36;;;;;;;3.40;0.80;;;14.80;99.90;;;;;;5058995;28;20078;-66
2021/05/11 16:09:02;;;;;;;1.60;0.75;;;14.80;99.90;;;;;;5059405;28;20043;-66
2021/05/11 16:11:27;;;;;;;3.55;0.70;;;14.80;99.90;;;;;;5058196;28;20040;-66
2021/05/11 16:13:54;;;;;;;3.33;1.00;;;14.80;99.90;;;;;;5059588;28;20037;-66
2021/05/11 16:16:21;;;;;;;2.45;1.00;;;14.70;99.90;;;;;;5063103;28;20040;-66
2021/05/11 16:18:47;;;;;;;2.30;0.70;;;14.70;99.90;;;;;;5061818;28;20050;-66
2021/05/11 16:21:12;;;;;;;2.30;1.00;;;14.70;99.60;;;;;;5065404;28;20040;-67
2021/05/11 16:23:38;;;;;;;1.42;1.02;;;14.70;99.50;;;;;;5068101;28;20039;-66
2021/05/11 16:26:04;;;;;;;3.50;1.25;;;14.70;99.30;;;;;;5091132;27;20139;-66
2021/05/11 16:28:30;;;;;;;3.92;1.73;;;14.70;99.60;;;;;;5065510;28;20067;-66
2021/05/11 16:30:56;;;;;;;3.05;0.80;;;14.70;99.80;;;;;;5061186;28;20040;-65
2021/05/11 16:33:22;;;;;;;2.53;0.93;;;14.70;99.70;;;;;;5063990;28;20048;-66
2021/05/11 16:35:47;;;;;;;3.72;0.98;;;14.70;99.50;;;;;;5064291;28;20812;-66
2021/05/11 16:38:13;;;;;;;3.22;1.00;;;14.60;99.60;;;;;;5065876;28;20071;-66
2021/05/11 16:40:40;;;;;;;2.55;0.88;;;14.60;99.50;;;;;;5065881;28;20087;-66
2021/05/11 16:43:06;;;;;;;3.50;0.80;;;14.50;99.50;;;;;;5065231;28;20033;-66
2021/05/11 16:45:32;;;;;;;2.17;0.93;;;14.50;99.60;;;;;;5061983;28;20041;-66
2021/05/11 16:48:00;;;;;;;6.45;1.10;;;14.50;99.80;;;;;;5056205;28;20483;-66
2021/05/11 16:50:28;;;;;;;3.92;1.00;;;14.50;99.90;;;;;;5057940;28;20765;-66
2021/05/11 16:52:55;;;;;;;2.47;1.10;;;14.40;99.90;;;;;;5062401;28;20048;-66
2021/05/11 16:55:23;;;;;;;3.95;1.10;;;14.40;99.90;;;;;;5059161;28;20040;-66
2021/05/11 16:57:57;;;;;;;3.78;1.15;;;14.40;99.90;;;;;;5062459;28;20044;-66